sensor_id;sensor_type;location;lat;lon;timestamp;pressure;altitude;pressure_sealevel;temperature;humidity
56241;BME280;42155;53.096;23.226;2023-02-12T00:00:19;101047.84;;;0.69;72.55
56241;BME280;42155;53.096;23.226;2023-02-12T00:02:19;101050.38;;;0.72;72.37
56241;BME280;42155;53.096;23.226;2023-02-12T00:04:19;101060.84;;;0.72;72.28
56241;BME280;42155;53.096;23.226;2023-02-12T00:06:20;101054.81;;;0.68;72.97
56241;BME280;42155;53.096;23.226;2023-02-12T00:08:20;101063.59;;;0.66;73.01
56241;BME280;42155;53.096;23.226;2023-02-12T00:10:21;101064.50;;;0.65;73.06
56241;BME280;42155;53.096;23.226;2023-02-12T00:12:21;101068.69;;;0.72;73.10
56241;BME280;42155;53.096;23.226;2023-02-12T00:14:22;101076.56;;;0.70;72.63
56241;BME280;42155;53.096;23.226;2023-02-12T00:16:25;101067.03;;;0.68;72.63
56241;BME280;42155;53.096;23.226;2023-02-12T00:18:26;101074.00;;;0.67;73.11
56241;BME280;42155;53.096;23.226;2023-02-12T00:20:26;101080.06;;;0.69;73.15
56241;BME280;42155;53.096;23.226;2023-02-12T00:22:27;101086.06;;;0.73;73.01
56241;BME280;42155;53.096;23.226;2023-02-12T00:24:27;101062.03;;;0.57;72.71
56241;BME280;42155;53.096;23.226;2023-02-12T00:26:27;101087.81;;;0.74;73.16
56241;BME280;42155;53.096;23.226;2023-02-12T00:28:28;101025.84;;;0.40;72.83
56241;BME280;42155;53.096;23.226;2023-02-12T00:30:28;101085.25;;;0.71;73.00
56241;BME280;42155;53.096;23.226;2023-02-12T00:32:28;101081.25;;;0.55;73.16
56241;BME280;42155;53.096;23.226;2023-02-12T00:34:29;101100.28;;;0.60;73.01
56241;BME280;42155;53.096;23.226;2023-02-12T00:36:30;101102.22;;;0.52;72.68
56241;BME280;42155;53.096;23.226;2023-02-12T00:38:30;101068.88;;;0.21;73.30
56241;BME280;42155;53.096;23.226;2023-02-12T00:40:31;101112.03;;;0.39;72.76
56241;BME280;42155;53.096;23.226;2023-02-12T00:42:31;101135.50;;;0.40;73.17
56241;BME280;42155;53.096;23.226;2023-02-12T00:44:32;101133.84;;;0.36;72.46
56241;BME280;42155;53.096;23.226;2023-02-12T00:46:32;101133.13;;;0.30;72.57
56241;BME280;42155;53.096;23.226;2023-02-12T00:48:33;101113.41;;;0.15;72.60
56241;BME280;42155;53.096;23.226;2023-02-12T00:50:33;101147.78;;;0.35;72.76
56241;BME280;42155;53.096;23.226;2023-02-12T00:52:34;101150.25;;;0.43;72.84
56241;BME280;42155;53.096;23.226;2023-02-12T00:54:34;101163.41;;;0.38;72.05
56241;BME280;42155;53.096;23.226;2023-02-12T00:56:34;101128.97;;;0.19;72.35
56241;BME280;42155;53.096;23.226;2023-02-12T00:58:35;101151.34;;;0.33;72.41
56241;BME280;42155;53.096;23.226;2023-02-12T01:00:35;101156.59;;;0.30;71.78
56241;BME280;42155;53.096;23.226;2023-02-12T01:02:36;101160.13;;;0.27;72.27
56241;BME280;42155;53.096;23.226;2023-02-12T01:04:36;101153.38;;;0.17;72.32
56241;BME280;42155;53.096;23.226;2023-02-12T01:06:36;101146.59;;;0.07;71.80
56241;BME280;42155;53.096;23.226;2023-02-12T01:08:37;101150.91;;;0.08;71.46
56241;BME280;42155;53.096;23.226;2023-02-12T01:10:37;101154.47;;;0.05;71.93
56241;BME280;42155;53.096;23.226;2023-02-12T01:12:37;101149.25;;;0.04;71.45
56241;BME280;42155;53.096;23.226;2023-02-12T01:14:38;101176.09;;;0.12;71.94
56241;BME280;42155;53.096;23.226;2023-02-12T01:16:38;101185.66;;;0.11;71.35
56241;BME280;42155;53.096;23.226;2023-02-12T01:18:39;101184.06;;;0.03;71.64
56241;BME280;42155;53.096;23.226;2023-02-12T01:20:39;101188.50;;;-0.03;71.21
56241;BME280;42155;53.096;23.226;2023-02-12T01:22:39;101184.34;;;-0.14;71.34
56241;BME280;42155;53.096;23.226;2023-02-12T01:24:40;101174.94;;;-0.21;71.42
56241;BME280;42155;53.096;23.226;2023-02-12T01:26:40;101205.97;;;-0.05;71.34
56241;BME280;42155;53.096;23.226;2023-02-12T01:28:42;101183.66;;;-0.24;71.65
56241;BME280;42155;53.096;23.226;2023-02-12T01:30:43;101229.44;;;-0.05;71.43
56241;BME280;42155;53.096;23.226;2023-02-12T01:32:43;101233.78;;;-0.04;71.85
56241;BME280;42155;53.096;23.226;2023-02-12T01:34:43;101219.91;;;-0.07;72.02
56241;BME280;42155;53.096;23.226;2023-02-12T01:36:44;101225.16;;;-0.09;71.45
56241;BME280;42155;53.096;23.226;2023-02-12T01:38:44;101238.13;;;-0.06;71.81
56241;BME280;42155;53.096;23.226;2023-02-12T01:40:45;101235.53;;;-0.06;71.94
56241;BME280;42155;53.096;23.226;2023-02-12T01:42:45;101230.31;;;-0.06;71.86
56241;BME280;42155;53.096;23.226;2023-02-12T01:47:16;101241.69;;;-0.08;72.13
56241;BME280;42155;53.096;23.226;2023-02-12T01:49:20;101240.81;;;-0.09;72.08
56241;BME280;42155;53.096;23.226;2023-02-12T01:51:23;101244.28;;;-0.10;72.22
56241;BME280;42155;53.096;23.226;2023-02-12T01:53:27;101235.66;;;-0.15;71.73
56241;BME280;42155;53.096;23.226;2023-02-12T01:55:28;101233.28;;;-0.27;72.39
56241;BME280;42155;53.096;23.226;2023-02-12T01:57:31;101248.00;;;-0.23;72.33
56241;BME280;42155;53.096;23.226;2023-02-12T01:59:33;101254.16;;;-0.29;72.52
56241;BME280;42155;53.096;23.226;2023-02-12T02:01:35;101251.59;;;-0.32;72.61
56241;BME280;42155;53.096;23.226;2023-02-12T02:03:37;101261.13;;;-0.29;72.85
56241;BME280;42155;53.096;23.226;2023-02-12T02:05:49;101260.19;;;-0.25;72.15
56241;BME280;42155;53.096;23.226;2023-02-12T02:07:53;101256.69;;;-0.24;72.24
56241;BME280;42155;53.096;23.226;2023-02-12T02:09:54;101251.59;;;-0.33;72.25
56241;BME280;42155;53.096;23.226;2023-02-12T02:11:55;101256.84;;;-0.35;72.43
56241;BME280;42155;53.096;23.226;2023-02-12T02:13:56;101256.94;;;-0.39;72.91
56241;BME280;42155;53.096;23.226;2023-02-12T02:15:59;101254.44;;;-0.48;73.13
56241;BME280;42155;53.096;23.226;2023-02-12T02:18:11;101240.75;;;-0.63;73.03
56241;BME280;42155;53.096;23.226;2023-02-12T02:32:58;101283.69;;;-0.91;73.65
56241;BME280;42155;53.096;23.226;2023-02-12T02:35:09;101286.28;;;-0.90;73.65
56241;BME280;42155;53.096;23.226;2023-02-12T02:37:16;101294.13;;;-0.91;73.72
56241;BME280;42155;53.096;23.226;2023-02-12T02:39:56;101293.31;;;-0.96;74.18
56241;BME280;42155;53.096;23.226;2023-02-12T02:42:09;101301.13;;;-0.96;74.11
56241;BME280;42155;53.096;23.226;2023-02-12T02:44:15;101300.38;;;-1.08;73.56
56241;BME280;42155;53.096;23.226;2023-02-12T02:46:28;101295.25;;;-1.14;74.11
56241;BME280;42155;53.096;23.226;2023-02-12T02:48:53;101318.69;;;-1.14;74.65
56241;BME280;42155;53.096;23.226;2023-02-12T02:51:00;101269.53;;;-1.43;74.37
56241;BME280;42155;53.096;23.226;2023-02-12T02:53:09;101302.19;;;-1.16;74.29
56241;BME280;42155;53.096;23.226;2023-02-12T02:55:14;101302.28;;;-1.25;74.66
56241;BME280;42155;53.096;23.226;2023-02-12T02:57:44;101282.50;;;-1.41;74.98
56241;BME280;42155;53.096;23.226;2023-02-12T02:59:54;101324.00;;;-1.26;74.41
56241;BME280;42155;53.096;23.226;2023-02-12T03:02:00;101324.09;;;-1.32;74.87
56241;BME280;42155;53.096;23.226;2023-02-12T03:04:02;101335.38;;;-1.33;74.67
56241;BME280;42155;53.096;23.226;2023-02-12T03:06:29;101330.16;;;-1.32;74.81
56241;BME280;42155;53.096;23.226;2023-02-12T03:08:40;101333.63;;;-1.34;75.04
56241;BME280;42155;53.096;23.226;2023-02-12T03:10:45;101333.69;;;-1.37;74.74
56241;BME280;42155;53.096;23.226;2023-02-12T03:12:54;101343.22;;;-1.36;74.67
56241;BME280;42155;53.096;23.226;2023-02-12T03:15:08;101348.44;;;-1.39;74.81
56241;BME280;42155;53.096;23.226;2023-02-12T03:17:20;101365.84;;;-1.41;75.48
56241;BME280;42155;53.096;23.226;2023-02-12T03:19:26;101355.44;;;-1.43;75.00
56241;BME280;42155;53.096;23.226;2023-02-12T03:21:50;101371.06;;;-1.44;74.96
56241;BME280;42155;53.096;23.226;2023-02-12T03:24:00;101377.13;;;-1.42;75.04
56241;BME280;42155;53.096;23.226;2023-02-12T03:26:08;101377.94;;;-1.37;75.17
56241;BME280;42155;53.096;23.226;2023-02-12T03:28:18;101396.13;;;-1.33;74.97
56241;BME280;42155;53.096;23.226;2023-02-12T03:30:19;101398.72;;;-1.34;74.99
56241;BME280;42155;53.096;23.226;2023-02-12T03:32:28;101390.09;;;-1.39;74.90
56241;BME280;42155;53.096;23.226;2023-02-12T03:34:46;101394.38;;;-1.29;75.40
56241;BME280;42155;53.096;23.226;2023-02-12T03:36:58;101394.34;;;-1.27;75.43
56241;BME280;42155;53.096;23.226;2023-02-12T03:39:13;101406.47;;;-1.25;75.14
56241;BME280;42155;53.096;23.226;2023-02-12T03:43:27;101391.84;;;-1.37;75.34
56241;BME280;42155;53.096;23.226;2023-02-12T03:47:43;101403.94;;;-1.31;75.30
56241;BME280;42155;53.096;23.226;2023-02-12T03:49:54;101436.84;;;-1.22;75.23
56241;BME280;42155;53.096;23.226;2023-02-12T03:51:58;101424.75;;;-1.28;74.78
56241;BME280;42155;53.096;23.226;2023-02-12T03:54:00;101432.53;;;-1.26;75.24
56241;BME280;42155;53.096;23.226;2023-02-12T03:56:09;101442.09;;;-1.27;75.29
56241;BME280;42155;53.096;23.226;2023-02-12T03:58:16;101457.72;;;-1.27;75.03
56241;BME280;42155;53.096;23.226;2023-02-12T04:00:22;101455.19;;;-1.36;75.24
56241;BME280;42155;53.096;23.226;2023-02-12T04:02:22;101439.66;;;-1.48;75.06
56241;BME280;42155;53.096;23.226;2023-02-12T04:04:24;101441.38;;;-1.43;74.93
56241;BME280;42155;53.096;23.226;2023-02-12T04:06:26;101462.13;;;-1.34;75.52
56241;BME280;42155;53.096;23.226;2023-02-12T04:08:27;101450.06;;;-1.48;74.97
56241;BME280;42155;53.096;23.226;2023-02-12T04:17:25;101490.88;;;-1.47;75.22
56241;BME280;42155;53.096;23.226;2023-02-12T04:24:24;101491.84;;;-1.68;75.90
56241;BME280;42155;53.096;23.226;2023-02-12T04:26:41;101502.22;;;-1.64;76.06
56241;BME280;42155;53.096;23.226;2023-02-12T04:28:49;101504.84;;;-1.64;76.64
56241;BME280;42155;53.096;23.226;2023-02-12T04:31:03;101446.06;;;-1.98;75.94
56241;BME280;42155;53.096;23.226;2023-02-12T04:33:07;101515.25;;;-1.64;76.22
56241;BME280;42155;53.096;23.226;2023-02-12T04:37:29;101528.25;;;-1.61;76.40
56241;BME280;42155;53.096;23.226;2023-02-12T04:39:36;101522.22;;;-1.66;76.33
56241;BME280;42155;53.096;23.226;2023-02-12T04:41:38;101515.34;;;-1.79;76.12
56241;BME280;42155;53.096;23.226;2023-02-12T04:43:38;101527.47;;;-1.78;76.62
56241;BME280;42155;53.096;23.226;2023-02-12T04:45:38;101500.66;;;-1.97;76.47
56241;BME280;42155;53.096;23.226;2023-02-12T04:47:39;101536.16;;;-1.85;76.97
56241;BME280;42155;53.096;23.226;2023-02-12T04:49:39;101538.78;;;-1.88;76.77
56241;BME280;42155;53.096;23.226;2023-02-12T04:51:40;101541.41;;;-1.91;76.44
56241;BME280;42155;53.096;23.226;2023-02-12T04:53:40;101526.69;;;-2.00;76.78
56241;BME280;42155;53.096;23.226;2023-02-12T04:55:41;101534.47;;;-1.95;76.86
56241;BME280;42155;53.096;23.226;2023-02-12T04:57:41;101535.31;;;-1.89;76.82
56241;BME280;42155;53.096;23.226;2023-02-12T04:59:42;101537.94;;;-1.93;77.03
56241;BME280;42155;53.096;23.226;2023-02-12T05:01:42;101534.47;;;-1.97;77.43
56241;BME280;42155;53.096;23.226;2023-02-12T05:03:43;101541.44;;;-1.97;76.78
56241;BME280;42155;53.096;23.226;2023-02-12T05:05:43;101541.47;;;-2.07;77.46
56241;BME280;42155;53.096;23.226;2023-02-12T05:07:43;101534.56;;;-2.20;77.39
56241;BME280;42155;53.096;23.226;2023-02-12T05:09:44;101571.78;;;-2.09;77.63
56241;BME280;42155;53.096;23.226;2023-02-12T05:11:44;101584.81;;;-2.15;77.27
56241;BME280;42155;53.096;23.226;2023-02-12T05:13:49;101593.50;;;-2.16;77.75
56241;BME280;42155;53.096;23.226;2023-02-12T05:15:49;101564.03;;;-2.28;77.80
56241;BME280;42155;53.096;23.226;2023-02-12T05:17:50;101592.63;;;-2.16;77.80
56241;BME280;42155;53.096;23.226;2023-02-12T05:19:50;101575.34;;;-2.36;77.69
56241;BME280;42155;53.096;23.226;2023-02-12T05:21:50;101591.75;;;-2.23;78.03
56241;BME280;42155;53.096;23.226;2023-02-12T05:23:51;101596.13;;;-2.25;77.74
56241;BME280;42155;53.096;23.226;2023-02-12T05:25:51;101572.72;;;-2.33;78.01
56241;BME280;42155;53.096;23.226;2023-02-12T05:27:51;101594.38;;;-2.23;78.00
56241;BME280;42155;53.096;23.226;2023-02-12T05:29:52;101607.38;;;-2.17;78.12
56241;BME280;42155;53.096;23.226;2023-02-12T05:31:52;101617.75;;;-2.14;77.48
56241;BME280;42155;53.096;23.226;2023-02-12T05:33:52;101609.09;;;-2.19;78.36
56241;BME280;42155;53.096;23.226;2023-02-12T05:35:53;101599.59;;;-2.26;77.84
56241;BME280;42155;53.096;23.226;2023-02-12T05:37:53;101560.63;;;-2.52;77.80
56241;BME280;42155;53.096;23.226;2023-02-12T05:39:54;101622.97;;;-2.14;77.86
56241;BME280;42155;53.096;23.226;2023-02-12T05:41:54;101635.13;;;-2.16;77.58
56241;BME280;42155;53.096;23.226;2023-02-12T05:43:54;101594.41;;;-2.34;78.02
56241;BME280;42155;53.096;23.226;2023-02-12T05:45:58;101543.31;;;-2.74;77.78
56241;BME280;42155;53.096;23.226;2023-02-12T05:47:58;101622.97;;;-2.20;77.59
56241;BME280;42155;53.096;23.226;2023-02-12T05:49:59;101617.78;;;-2.29;78.29
56241;BME280;42155;53.096;23.226;2023-02-12T05:51:59;101626.44;;;-2.27;78.16
56241;BME280;42155;53.096;23.226;2023-02-12T05:54:02;101616.94;;;-2.36;78.31
56241;BME280;42155;53.096;23.226;2023-02-12T05:56:10;101639.44;;;-2.24;78.13
56241;BME280;42155;53.096;23.226;2023-02-12T05:58:11;101609.13;;;-2.31;77.78
56241;BME280;42155;53.096;23.226;2023-02-12T06:00:12;101640.31;;;-2.16;78.21
56241;BME280;42155;53.096;23.226;2023-02-12T06:02:12;101559.78;;;-2.59;78.15
56241;BME280;42155;53.096;23.226;2023-02-12T06:04:16;101635.97;;;-2.14;78.00
56241;BME280;42155;53.096;23.226;2023-02-12T06:06:17;101618.66;;;-2.24;78.00
56241;BME280;42155;53.096;23.226;2023-02-12T06:08:17;101624.72;;;-2.16;78.16
56241;BME280;42155;53.096;23.226;2023-02-12T06:10:18;101649.81;;;-2.04;77.64
56241;BME280;42155;53.096;23.226;2023-02-12T06:12:18;101633.38;;;-2.17;77.75
56241;BME280;42155;53.096;23.226;2023-02-12T06:14:19;101652.41;;;-1.89;77.49
56241;BME280;42155;53.096;23.226;2023-02-12T06:16:25;101645.44;;;-1.79;77.16
56241;BME280;42155;53.096;23.226;2023-02-12T06:18:27;101606.44;;;-1.93;77.18
56241;BME280;42155;53.096;23.226;2023-02-12T06:20:27;101648.00;;;-1.64;77.36
56241;BME280;42155;53.096;23.226;2023-02-12T06:22:28;101651.44;;;-1.56;76.83
56241;BME280;42155;53.096;23.226;2023-02-12T06:24:28;101649.69;;;-1.47;77.05
56241;BME280;42155;53.096;23.226;2023-02-12T06:26:28;101649.63;;;-1.40;76.89
56241;BME280;42155;53.096;23.226;2023-02-12T06:28:29;101651.34;;;-1.28;76.55
56241;BME280;42155;53.096;23.226;2023-02-12T06:30:29;101605.44;;;-1.50;75.91
56241;BME280;42155;53.096;23.226;2023-02-12T06:32:32;101625.25;;;-1.22;76.00
56241;BME280;42155;53.096;23.226;2023-02-12T06:34:33;101660.72;;;-0.96;75.36
56241;BME280;42155;53.096;23.226;2023-02-12T06:36:36;101655.47;;;-0.90;75.95
56241;BME280;42155;53.096;23.226;2023-02-12T06:38:36;101660.63;;;-0.81;75.60
56241;BME280;42155;53.096;23.226;2023-02-12T06:40:36;101660.56;;;-0.72;75.28
56241;BME280;42155;53.096;23.226;2023-02-12T06:42:37;101670.06;;;-0.63;75.42
56241;BME280;42155;53.096;23.226;2023-02-12T06:44:37;101658.72;;;-0.58;74.69
56241;BME280;42155;53.096;23.226;2023-02-12T06:46:37;101654.28;;;-0.46;74.41
56241;BME280;42155;53.096;23.226;2023-02-12T06:48:38;101644.78;;;-0.50;74.81
56241;BME280;42155;53.096;23.226;2023-02-12T06:50:38;101653.31;;;-0.33;74.82
56241;BME280;42155;53.096;23.226;2023-02-12T06:52:39;101671.44;;;-0.19;74.56
56241;BME280;42155;53.096;23.226;2023-02-12T06:54:39;101668.78;;;-0.15;74.43
56241;BME280;42155;53.096;23.226;2023-02-12T06:56:40;101678.25;;;-0.02;74.34
56241;BME280;42155;53.096;23.226;2023-02-12T06:58:44;101685.91;;;0.14;74.16
56241;BME280;42155;53.096;23.226;2023-02-12T07:00:46;101682.31;;;0.27;73.72
56241;BME280;42155;53.096;23.226;2023-02-12T07:02:51;101648.41;;;0.22;73.60
56241;BME280;42155;53.096;23.226;2023-02-12T07:04:52;101690.78;;;0.49;72.96
56241;BME280;42155;53.096;23.226;2023-02-12T07:06:52;101681.16;;;0.54;72.94
56241;BME280;42155;53.096;23.226;2023-02-12T07:08:53;101693.16;;;0.70;72.63
56241;BME280;42155;53.096;23.226;2023-02-12T07:10:54;101675.69;;;0.75;73.07
56241;BME280;42155;53.096;23.226;2023-02-12T07:12:54;101682.44;;;0.90;72.87
56241;BME280;42155;53.096;23.226;2023-02-12T07:14:54;101675.31;;;1.01;72.11
56241;BME280;42155;53.096;23.226;2023-02-12T07:16:55;101665.72;;;1.04;72.20
56241;BME280;42155;53.096;23.226;2023-02-12T07:18:55;101666.41;;;1.15;72.20
56241;BME280;42155;53.096;23.226;2023-02-12T07:20:56;101675.72;;;1.36;71.23
56241;BME280;42155;53.096;23.226;2023-02-12T07:22:56;101684.28;;;1.45;71.56
56241;BME280;42155;53.096;23.226;2023-02-12T07:24:56;101688.53;;;1.54;71.35
56241;BME280;42155;53.096;23.226;2023-02-12T07:26:57;101656.41;;;1.44;70.73
56241;BME280;42155;53.096;23.226;2023-02-12T07:28:57;101692.75;;;1.63;70.63
56241;BME280;42155;53.096;23.226;2023-02-12T07:30:58;101701.31;;;1.71;70.98
56241;BME280;42155;53.096;23.226;2023-02-12T07:33:00;101712.53;;;1.79;70.38
56241;BME280;42155;53.096;23.226;2023-02-12T07:35:00;101695.91;;;1.83;70.63
56241;BME280;42155;53.096;23.226;2023-02-12T07:37:01;101706.38;;;1.83;70.12
56241;BME280;42155;53.096;23.226;2023-02-12T07:39:02;101706.31;;;1.86;70.22
56241;BME280;42155;53.096;23.226;2023-02-12T07:41:11;101703.59;;;1.92;70.40
56241;BME280;42155;53.096;23.226;2023-02-12T07:43:11;101700.00;;;1.98;70.06
56241;BME280;42155;53.096;23.226;2023-02-12T07:45:12;101692.22;;;1.93;69.87
56241;BME280;42155;53.096;23.226;2023-02-12T07:47:12;101691.41;;;1.91;69.75
56241;BME280;42155;53.096;23.226;2023-02-12T07:49:15;101699.66;;;1.67;70.76
56241;BME280;42155;53.096;23.226;2023-02-12T07:51:17;101647.13;;;1.23;70.93
56241;BME280;42155;53.096;23.226;2023-02-12T07:53:17;101686.25;;;1.31;71.23
56241;BME280;42155;53.096;23.226;2023-02-12T07:55:17;101648.19;;;1.10;70.45
56241;BME280;42155;53.096;23.226;2023-02-12T07:57:18;101689.63;;;1.39;71.23
56241;BME280;42155;53.096;23.226;2023-02-12T07:59:18;101698.06;;;1.57;70.87
56241;BME280;42155;53.096;23.226;2023-02-12T08:01:20;101712.75;;;1.67;70.10
56241;BME280;42155;53.096;23.226;2023-02-12T08:03:20;101711.84;;;1.68;70.12
56241;BME280;42155;53.096;23.226;2023-02-12T08:05:21;101714.41;;;1.72;69.91
56241;BME280;42155;53.096;23.226;2023-02-12T08:07:21;101713.53;;;1.72;70.54
56241;BME280;42155;53.096;23.226;2023-02-12T08:09:27;101718.63;;;1.81;70.17
56241;BME280;42155;53.096;23.226;2023-02-12T08:11:28;101682.28;;;1.63;69.93
56241;BME280;42155;53.096;23.226;2023-02-12T08:13:29;101718.59;;;1.83;69.98
56241;BME280;42155;53.096;23.226;2023-02-12T08:15:30;101720.25;;;1.88;70.26
56241;BME280;42155;53.096;23.226;2023-02-12T08:17:30;101730.38;;;2.10;69.56
56241;BME280;42155;53.096;23.226;2023-02-12T08:19:31;101723.34;;;2.12;69.16
56241;BME280;42155;53.096;23.226;2023-02-12T08:21:31;101732.25;;;2.01;69.14
56241;BME280;42155;53.096;23.226;2023-02-12T08:23:32;101729.13;;;1.78;69.20
56241;BME280;42155;53.096;23.226;2023-02-12T08:25:32;101739.69;;;1.73;69.68
56241;BME280;42155;53.096;23.226;2023-02-12T08:27:33;101746.50;;;1.85;69.50
56241;BME280;42155;53.096;23.226;2023-02-12T08:29:33;101748.06;;;1.94;69.59
56241;BME280;42155;53.096;23.226;2023-02-12T08:31:42;101712.59;;;1.74;68.61
56241;BME280;42155;53.096;23.226;2023-02-12T08:33:43;101749.78;;;1.96;69.15
56241;BME280;42155;53.096;23.226;2023-02-12T08:35:44;101755.03;;;1.96;69.33
56241;BME280;42155;53.096;23.226;2023-02-12T08:37:44;101749.63;;;2.06;69.24
56241;BME280;42155;53.096;23.226;2023-02-12T08:39:45;101734.59;;;2.17;68.91
56241;BME280;42155;53.096;23.226;2023-02-12T08:41:45;101749.25;;;2.28;68.65
56241;BME280;42155;53.096;23.226;2023-02-12T08:43:46;101763.63;;;2.54;68.46
56241;BME280;42155;53.096;23.226;2023-02-12T08:45:46;101753.94;;;2.58;67.46
56241;BME280;42155;53.096;23.226;2023-02-12T08:47:47;101747.84;;;2.57;67.58
56241;BME280;42155;53.096;23.226;2023-02-12T08:49:47;101746.41;;;2.39;67.35
56241;BME280;42155;53.096;23.226;2023-02-12T08:51:50;101762.91;;;2.44;67.31
56241;BME280;42155;53.096;23.226;2023-02-12T08:53:53;101764.75;;;2.39;67.36
56241;BME280;42155;53.096;23.226;2023-02-12T08:55:54;101770.00;;;2.41;67.75
56241;BME280;42155;53.096;23.226;2023-02-12T08:57:54;101755.75;;;2.55;67.64
56241;BME280;42155;53.096;23.226;2023-02-12T08:59:55;101733.44;;;2.33;67.02
56241;BME280;42155;53.096;23.226;2023-02-12T09:01:55;101771.78;;;2.37;66.92
56241;BME280;42155;53.096;23.226;2023-02-12T09:03:56;101777.94;;;2.35;67.68
56241;BME280;42155;53.096;23.226;2023-02-12T09:05:56;101746.81;;;2.16;67.55
56241;BME280;42155;53.096;23.226;2023-02-12T09:07:56;101759.84;;;2.21;67.36
56241;BME280;42155;53.096;23.226;2023-02-12T09:09:57;101772.69;;;2.36;67.19
56241;BME280;42155;53.096;23.226;2023-02-12T09:11:57;101768.91;;;2.52;67.46
56241;BME280;42155;53.096;23.226;2023-02-12T09:13:59;101778.25;;;2.66;66.57
56241;BME280;42155;53.096;23.226;2023-02-12T09:16:01;101769.59;;;2.64;66.73
56241;BME280;42155;53.096;23.226;2023-02-12T09:18:02;101774.47;;;2.82;67.01
56241;BME280;42155;53.096;23.226;2023-02-12T09:20:02;101771.38;;;3.05;66.52
56241;BME280;42155;53.096;23.226;2023-02-12T09:22:03;101768.53;;;3.16;65.38
56241;BME280;42155;53.096;23.226;2023-02-12T09:24:03;101748.31;;;3.21;64.93
56241;BME280;42155;53.096;23.226;2023-02-12T09:26:05;101763.00;;;3.28;65.50
56241;BME280;42155;53.096;23.226;2023-02-12T09:28:06;101718.22;;;2.97;64.89
56241;BME280;42155;53.096;23.226;2023-02-12T09:30:06;101658.19;;;2.40;64.90
56241;BME280;42155;53.096;23.226;2023-02-12T09:32:07;101758.28;;;3.03;65.60
56241;BME280;42155;53.096;23.226;2023-02-12T09:34:07;101760.81;;;3.08;65.44
56241;BME280;42155;53.096;23.226;2023-02-12T09:36:10;101774.69;;;3.15;64.77
56241;BME280;42155;53.096;23.226;2023-02-12T09:38:11;101784.09;;;3.25;65.14
56241;BME280;42155;53.096;23.226;2023-02-12T09:43:05;101780.06;;;3.49;64.70
56241;BME280;42155;53.096;23.226;2023-02-12T09:45:15;101750.41;;;3.45;64.35
56241;BME280;42155;53.096;23.226;2023-02-12T09:47:41;101776.88;;;3.75;63.49
56241;BME280;42155;53.096;23.226;2023-02-12T09:51:51;101784.66;;;3.78;63.40
56241;BME280;42155;53.096;23.226;2023-02-12T09:54:00;101783.66;;;3.83;63.08
56241;BME280;42155;53.096;23.226;2023-02-12T09:56:02;101779.19;;;3.87;63.31
56241;BME280;42155;53.096;23.226;2023-02-12T09:58:10;101727.09;;;3.69;63.04
56241;BME280;42155;53.096;23.226;2023-02-12T10:00:21;101774.13;;;4.17;62.79
56241;BME280;42155;53.096;23.226;2023-02-12T10:02:23;101750.75;;;4.04;62.17
56241;BME280;42155;53.096;23.226;2023-02-12T10:04:25;101770.75;;;4.10;62.08
56241;BME280;42155;53.096;23.226;2023-02-12T10:06:29;101765.31;;;3.82;62.30
56241;BME280;42155;53.096;23.226;2023-02-12T10:10:43;101762.19;;;3.65;63.68
56241;BME280;42155;53.096;23.226;2023-02-12T10:12:50;101766.97;;;3.86;63.82
56241;BME280;42155;53.096;23.226;2023-02-12T10:14:58;101762.25;;;4.00;62.31
56241;BME280;42155;53.096;23.226;2023-02-12T10:26:20;101768.25;;;4.05;61.99
56241;BME280;42155;53.096;23.226;2023-02-12T10:28:27;101766.28;;;4.14;62.29
56241;BME280;42155;53.096;23.226;2023-02-12T10:32:45;101773.53;;;4.38;61.17
56241;BME280;42155;53.096;23.226;2023-02-12T10:34:47;101766.38;;;4.45;61.31
56241;BME280;42155;53.096;23.226;2023-02-12T10:36:48;101755.00;;;4.44;60.75
56241;BME280;42155;53.096;23.226;2023-02-12T10:38:54;101763.38;;;4.58;61.05
56241;BME280;42155;53.096;23.226;2023-02-12T10:40:56;101765.09;;;4.59;60.68
56241;BME280;42155;53.096;23.226;2023-02-12T10:42:57;101759.41;;;4.44;60.22
56241;BME280;42155;53.096;23.226;2023-02-12T10:44:58;101758.75;;;4.34;60.79
56241;BME280;42155;53.096;23.226;2023-02-12T10:46:58;101764.78;;;4.39;60.47
56241;BME280;42155;53.096;23.226;2023-02-12T10:48:59;101761.38;;;4.34;60.33
56241;BME280;42155;53.096;23.226;2023-02-12T10:51:14;101764.13;;;4.31;60.86
56241;BME280;42155;53.096;23.226;2023-02-12T10:53:24;101764.13;;;4.31;60.37
56241;BME280;42155;53.096;23.226;2023-02-12T10:55:28;101727.47;;;3.91;59.90
56241;BME280;42155;53.096;23.226;2023-02-12T10:57:30;101771.72;;;4.07;60.18
56241;BME280;42155;53.096;23.226;2023-02-12T10:59:30;101766.09;;;3.86;60.84
56241;BME280;42155;53.096;23.226;2023-02-12T11:01:36;101765.31;;;3.82;60.47
56241;BME280;42155;53.096;23.226;2023-02-12T11:03:37;101752.06;;;3.87;60.99
56241;BME280;42155;53.096;23.226;2023-02-12T11:05:40;101755.31;;;3.96;61.05
56241;BME280;42155;53.096;23.226;2023-02-12T11:07:48;101749.09;;;4.00;60.38
56241;BME280;42155;53.096;23.226;2023-02-12T11:09:51;101753.28;;;4.09;60.24
56241;BME280;42155;53.096;23.226;2023-02-12T11:11:52;101689.19;;;3.80;59.71
56241;BME280;42155;53.096;23.226;2023-02-12T11:14:03;101709.06;;;3.91;59.73
56241;BME280;42155;53.096;23.226;2023-02-12T11:16:04;101758.19;;;4.23;59.92
56241;BME280;42155;53.096;23.226;2023-02-12T11:18:06;101689.09;;;3.85;59.45
56241;BME280;42155;53.096;23.226;2023-02-12T11:20:18;101748.59;;;4.22;59.26
56241;BME280;42155;53.096;23.226;2023-02-12T11:22:19;101742.69;;;4.12;58.84
56241;BME280;42155;53.096;23.226;2023-02-12T11:24:34;101751.69;;;4.02;59.36
56241;BME280;42155;53.096;23.226;2023-02-12T11:26:34;101722.91;;;3.97;59.75
56241;BME280;42155;53.096;23.226;2023-02-12T11:28:35;101738.75;;;4.28;60.06
56241;BME280;42155;53.096;23.226;2023-02-12T11:30:57;101737.25;;;4.52;59.60